^^
Station Historical Data
Daily Summary for August 22, 2017 Units:  Both    English   Metric
« Previous Day
Next Day »
Daily Weekly Monthly Yearly Custom
  High: Low: Average:
Temperature: TemperatureF °F /  -17.8 °C 44.8 °F /  7.1 °C 62.1 °F /  16.7 °C
Dew Point: DewpointF °F /  -17.8 °C 1.6 °F /  -16.9 °C 17 °F /  -8.3 °C
Humidity: Humidity% 5% 21%
Wind Speed: WindSpeedMPHmph /  0km/h - 0.7mph /  1.1km/h
Wind Gust: WindSpeedGustMPHmph /  0km/h - -
Wind- - SW
Pressure: PressureIn in /  0 hPa 30.19 in /  1022.2 hPa -
Precipitation: 0.00 in /  0 mm    
Historical Graphs
 
 
Tabular Data for August 22, 2017
Time Temperature Dew Point Pressure Wind Wind Speed Wind Gust Humidity Rainfall Rate (Hourly) solar Conditions
TemperatureF °F /  -17.8 °C DewpointF °F /  -17.8 °C PressureInin /  0hPa Calm     Humidity% HourlyPrecipInin /  0mm SolarRadiationWatts/m^2 W/m2 Conditions
00:00 51.3 °F /  10.7 °C 20.8 °F /  -6.2 °C 30.32in /  1026.6hPa Calm     30% 0.00in /  0mm 0.0 W/m2
00:06 51.1 °F /  10.6 °C 20.7 °F /  -6.3 °C 30.32in /  1026.6hPa Calm     30% 0.00in /  0mm 0.0 W/m2
00:12 50.9 °F /  10.5 °C 21.4 °F /  -5.9 °C 30.32in /  1026.6hPa Calm     31% 0.00in /  0mm 0.0 W/m2
00:18 50.7 °F /  10.4 °C 21.2 °F /  -6 °C 30.32in /  1026.6hPa Calm     31% 0.00in /  0mm 0.0 W/m2
00:24 50.7 °F /  10.4 °C 20.5 °F /  -6.4 °C 30.32in /  1026.6hPa Calm     30% 0.00in /  0mm 0.0 W/m2
00:30 50.7 °F /  10.4 °C 21.2 °F /  -6 °C 30.32in /  1026.6hPa Calm     31% 0.00in /  0mm 0.0 W/m2
00:36 50.7 °F /  10.4 °C 20.5 °F /  -6.4 °C 30.32in /  1026.6hPa East 0.9mph /  1.4km/h 1.0mph /  1.6km/h 30% 0.00in /  0mm 0.0 W/m2
00:42 50.5 °F /  10.3 °C 20.3 °F /  -6.5 °C 30.31in /  1026.3hPa Calm     30% 0.00in /  0mm 0.0 W/m2
00:48 50.5 °F /  10.3 °C 21.0 °F /  -6.1 °C 30.31in /  1026.3hPa Calm   1.0mph /  1.6km/h 31% 0.00in /  0mm 0.0 W/m2
00:54 50.5 °F /  10.3 °C 21.0 °F /  -6.1 °C 30.31in /  1026.3hPa Calm     31% 0.00in /  0mm 0.0 W/m2
01:00 50.5 °F /  10.3 °C 21.7 °F /  -5.7 °C 30.31in /  1026.3hPa Calm     32% 0.00in /  0mm 0.0 W/m2
01:06 50.4 °F /  10.2 °C 21.6 °F /  -5.8 °C 30.30in /  1026hPa Calm   1.0mph /  1.6km/h 32% 0.00in /  0mm 0.0 W/m2
01:12 50.2 °F /  10.1 °C 21.4 °F /  -5.9 °C 30.30in /  1026hPa Calm     32% 0.00in /  0mm 0.0 W/m2
01:18 50.2 °F /  10.1 °C 21.4 °F /  -5.9 °C 30.30in /  1026hPa Calm   1.0mph /  1.6km/h 32% 0.00in /  0mm 0.0 W/m2
01:26 49.8 °F /  9.9 °C 22.6 °F /  -5.2 °C 30.29in /  1025.6hPa Calm     34% 0.00in /  0mm 0.0 W/m2
01:32 49.8 °F /  9.9 °C 21.9 °F /  -5.6 °C 30.29in /  1025.6hPa Calm     33% 0.00in /  0mm 0.0 W/m2
01:38 49.6 °F /  9.8 °C 21.7 °F /  -5.7 °C 30.29in /  1025.6hPa Calm     33% 0.00in /  0mm 0.0 W/m2
01:44 49.6 °F /  9.8 °C 21.0 °F /  -6.1 °C 30.29in /  1025.6hPa Calm   1.0mph /  1.6km/h 32% 0.00in /  0mm 0.0 W/m2
01:50 49.5 °F /  9.7 °C 20.8 °F /  -6.2 °C 30.29in /  1025.6hPa Calm     32% 0.00in /  0mm 0.0 W/m2
01:56 49.5 °F /  9.7 °C 20.8 °F /  -6.2 °C 30.29in /  1025.6hPa Calm     32% 0.00in /  0mm 0.0 W/m2
02:02 49.3 °F /  9.6 °C 20.7 °F /  -6.3 °C 30.29in /  1025.6hPa Calm     32% 0.00in /  0mm 0.0 W/m2
02:08 49.3 °F /  9.6 °C 21.4 °F /  -5.9 °C 30.29in /  1025.6hPa Calm     33% 0.00in /  0mm 0.0 W/m2
02:14 48.9 °F /  9.4 °C 21.0 °F /  -6.1 °C 30.29in /  1025.6hPa Calm     33% 0.00in /  0mm 0.0 W/m2
02:20 48.9 °F /  9.4 °C 21.7 °F /  -5.7 °C 30.29in /  1025.6hPa Calm     34% 0.00in /  0mm 0.0 W/m2
02:26 48.7 °F /  9.3 °C 21.6 °F /  -5.8 °C 30.29in /  1025.6hPa Calm   1.0mph /  1.6km/h 34% 0.00in /  0mm 0.0 W/m2
02:32 48.6 °F /  9.2 °C 21.4 °F /  -5.9 °C 30.29in /  1025.6hPa Calm   2.0mph /  3.2km/h 34% 0.00in /  0mm 0.0 W/m2
02:38 48.6 °F /  9.2 °C 21.4 °F /  -5.9 °C 30.29in /  1025.6hPa East 0.9mph /  1.4km/h 3.0mph /  4.8km/h 34% 0.00in /  0mm 0.0 W/m2
02:44 48.9 °F /  9.4 °C 21.0 °F /  -6.1 °C 30.28in /  1025.3hPa East 2.0mph /  3.2km/h 3.0mph /  4.8km/h 33% 0.00in /  0mm 0.0 W/m2
02:50 49.5 °F /  9.7 °C 21.6 °F /  -5.8 °C 30.28in /  1025.3hPa Calm   2.0mph /  3.2km/h 33% 0.00in /  0mm 0.0 W/m2
02:56 49.6 °F /  9.8 °C 21.7 °F /  -5.7 °C 30.28in /  1025.3hPa Calm   1.0mph /  1.6km/h 33% 0.00in /  0mm 0.0 W/m2
03:03 49.6 °F /  9.8 °C 21.7 °F /  -5.7 °C 30.28in /  1025.3hPa East 0.9mph /  1.4km/h 2.0mph /  3.2km/h 33% 0.00in /  0mm 0.0 W/m2
03:08 49.5 °F /  9.7 °C 21.6 °F /  -5.8 °C 30.28in /  1025.3hPa Calm     33% 0.00in /  0mm 0.0 W/m2
03:14 49.3 °F /  9.6 °C 21.4 °F /  -5.9 °C 30.28in /  1025.3hPa Calm     33% 0.00in /  0mm 0.0 W/m2
03:20 48.9 °F /  9.4 °C 21.0 °F /  -6.1 °C 30.28in /  1025.3hPa Calm     33% 0.00in /  0mm 0.0 W/m2
03:26 48.6 °F /  9.2 °C 21.4 °F /  -5.9 °C 30.28in /  1025.3hPa Calm     34% 0.00in /  0mm 0.0 W/m2
03:32 48.4 °F /  9.1 °C 21.4 °F /  -5.9 °C 30.28in /  1025.3hPa Calm     34% 0.00in /  0mm 0.0 W/m2
03:38 48.0 °F /  8.9 °C 21.7 °F /  -5.7 °C 30.28in /  1025.3hPa Calm     35% 0.00in /  0mm 0.0 W/m2
03:44 47.8 °F /  8.8 °C 22.1 °F /  -5.5 °C 30.28in /  1025.3hPa Calm     36% 0.00in /  0mm 0.0 W/m2
03:50 47.7 °F /  8.7 °C 22.1 °F /  -5.5 °C 30.28in /  1025.3hPa Calm     36% 0.00in /  0mm 0.0 W/m2
03:56 47.7 °F /  8.7 °C 22.1 °F /  -5.5 °C 30.28in /  1025.3hPa Calm     36% 0.00in /  0mm 0.0 W/m2
04:02 47.7 °F /  8.7 °C 22.1 °F /  -5.5 °C 30.28in /  1025.3hPa Calm     36% 0.00in /  0mm 0.0 W/m2
04:09 47.7 °F /  8.7 °C 22.1 °F /  -5.5 °C 30.28in /  1025.3hPa Calm     36% 0.00in /  0mm 0.0 W/m2
04:21 47.5 °F /  8.6 °C 21.9 °F /  -5.6 °C 30.28in /  1025.3hPa Calm   1.0mph /  1.6km/h 36% 0.00in /  0mm 0.0 W/m2
04:27 47.5 °F /  8.6 °C 22.5 °F /  -5.3 °C 30.28in /  1025.3hPa Calm   1.0mph /  1.6km/h 37% 0.00in /  0mm 0.0 W/m2
04:31 47.5 °F /  8.6 °C 21.9 °F /  -5.6 °C 30.29in /  1025.6hPa Calm   1.0mph /  1.6km/h 36% 0.00in /  0mm 0.0 W/m2
04:37 47.5 °F /  8.6 °C 22.5 °F /  -5.3 °C 30.29in /  1025.6hPa Calm     37% 0.00in /  0mm 0.0 W/m2
04:43 47.1 °F /  8.4 °C 22.1 °F /  -5.5 °C 30.29in /  1025.6hPa Calm     37% 0.00in /  0mm 0.0 W/m2
04:47 47.1 °F /  8.4 °C 22.1 °F /  -5.5 °C 30.29in /  1025.6hPa Calm     37% 0.00in /  0mm 0.0 W/m2
04:51 46.9 °F /  8.3 °C 22.6 °F /  -5.2 °C 30.29in /  1025.6hPa Calm     38% 0.00in /  0mm 0.0 W/m2
04:57 46.8 °F /  8.2 °C 22.5 °F /  -5.3 °C 30.29in /  1025.6hPa Calm     38% 0.00in /  0mm 0.0 W/m2
05:03 46.6 °F /  8.1 °C 22.3 °F /  -5.4 °C 30.29in /  1025.6hPa Calm     38% 0.00in /  0mm 0.0 W/m2
05:09 46.4 °F /  8 °C 22.8 °F /  -5.1 °C 30.29in /  1025.6hPa Calm     39% 0.00in /  0mm 0.0 W/m2
05:15 46.2 °F /  7.9 °C 23.2 °F /  -4.9 °C 30.29in /  1025.6hPa Calm     40% 0.00in /  0mm 0.0 W/m2
05:21 46.0 °F /  7.8 °C 22.5 °F /  -5.3 °C 30.29in /  1025.6hPa Calm     39% 0.00in /  0mm 0.0 W/m2
05:27 46.0 °F /  7.8 °C 23.7 °F /  -4.6 °C 30.29in /  1025.6hPa Calm     41% 0.00in /  0mm 0.0 W/m2
05:33 45.9 °F /  7.7 °C 23.5 °F /  -4.7 °C 30.29in /  1025.6hPa Calm     41% 0.00in /  0mm 0.0 W/m2
05:40 45.9 °F /  7.7 °C 24.1 °F /  -4.4 °C 30.29in /  1025.6hPa Calm     42% 0.00in /  0mm 0.0 W/m2
05:47 45.7 °F /  7.6 °C 23.4 °F /  -4.8 °C 30.30in /  1026hPa Calm     41% 0.00in /  0mm 0.0 W/m2
05:53 45.7 °F /  7.6 °C 22.8 °F /  -5.1 °C 30.30in /  1026hPa Calm     40% 0.00in /  0mm 0.0 W/m2
05:59 45.3 °F /  7.4 °C 22.5 °F /  -5.3 °C 30.30in /  1026hPa Calm     40% 0.00in /  0mm 0.0 W/m2
06:05 45.3 °F /  7.4 °C 23.0 °F /  -5 °C 30.30in /  1026hPa Calm     41% 0.00in /  0mm 0.0 W/m2
06:11 45.1 °F /  7.3 °C 23.4 °F /  -4.8 °C 30.30in /  1026hPa Calm     42% 0.00in /  0mm 0.0 W/m2
06:17 45.0 °F /  7.2 °C 23.2 °F /  -4.9 °C 30.30in /  1026hPa Calm     42% 0.00in /  0mm 7.0 W/m2
06:21 45.0 °F /  7.2 °C 23.2 °F /  -4.9 °C 30.30in /  1026hPa Calm     42% 0.00in /  0mm 9.0 W/m2
06:28 44.8 °F /  7.1 °C 23.0 °F /  -5 °C 30.30in /  1026hPa Calm     42% 0.00in /  0mm 12.0 W/m2
06:34 44.8 °F /  7.1 °C 23.7 °F /  -4.6 °C 30.30in /  1026hPa Calm   1.0mph /  1.6km/h 43% 0.00in /  0mm 16.0 W/m2
06:40 45.0 °F /  7.2 °C 23.2 °F /  -4.9 °C 30.30in /  1026hPa Calm   2.0mph /  3.2km/h 42% 0.00in /  0mm 19.0 W/m2
06:46 45.3 °F /  7.4 °C 23.0 °F /  -5 °C 30.30in /  1026hPa East 0.9mph /  1.4km/h 2.0mph /  3.2km/h 41% 0.00in /  0mm 23.0 W/m2
06:52 45.7 °F /  7.6 °C 23.4 °F /  -4.8 °C 30.31in /  1026.3hPa Calm   1.0mph /  1.6km/h 41% 0.00in /  0mm 25.0 W/m2
06:58 46.2 °F /  7.9 °C 23.9 °F /  -4.5 °C 30.31in /  1026.3hPa ESE 2.0mph /  3.2km/h 4.0mph /  6.4km/h 41% 0.00in /  0mm 26.0 W/m2
07:05 46.9 °F /  8.3 °C 23.9 °F /  -4.5 °C 30.31in /  1026.3hPa Calm   2.0mph /  3.2km/h 40% 0.00in /  0mm 30.0 W/m2
07:11 47.7 °F /  8.7 °C 23.9 °F /  -4.5 °C 30.31in /  1026.3hPa Calm   2.0mph /  3.2km/h 39% 0.00in /  0mm 32.0 W/m2
07:17 48.2 °F /  9 °C 24.4 °F /  -4.2 °C 30.31in /  1026.3hPa ESE 0.9mph /  1.4km/h 2.0mph /  3.2km/h 39% 0.00in /  0mm 33.0 W/m2
07:23 48.9 °F /  9.4 °C 23.7 °F /  -4.6 °C 30.31in /  1026.3hPa East 0.9mph /  1.4km/h 4.0mph /  6.4km/h 37% 0.00in /  0mm 35.0 W/m2
07:29 50.0 °F /  10 °C 24.1 °F /  -4.4 °C 30.31in /  1026.3hPa East 0.9mph /  1.4km/h 3.0mph /  4.8km/h 36% 0.00in /  0mm 37.0 W/m2
07:35 50.9 °F /  10.5 °C 24.8 °F /  -4 °C 30.31in /  1026.3hPa Calm   3.0mph /  4.8km/h 36% 0.00in /  0mm 39.0 W/m2
07:41 51.8 °F /  11 °C 25.0 °F /  -3.9 °C 30.31in /  1026.3hPa ENE 0.9mph /  1.4km/h 3.0mph /  4.8km/h 35% 0.00in /  0mm 60.0 W/m2
07:47 52.9 °F /  11.6 °C 25.3 °F /  -3.7 °C 30.31in /  1026.3hPa Calm   2.0mph /  3.2km/h 34% 0.00in /  0mm 47.0 W/m2
07:53 53.4 °F /  11.9 °C 25.7 °F /  -3.5 °C 30.31in /  1026.3hPa Calm     34% 0.00in /  0mm 47.0 W/m2
08:00 54.1 °F /  12.3 °C 25.7 °F /  -3.5 °C 30.31in /  1026.3hPa Calm   1.0mph /  1.6km/h 33% 0.00in /  0mm 46.0 W/m2
08:06 55.0 °F /  12.8 °C 26.4 °F /  -3.1 °C 30.31in /  1026.3hPa Calm   2.0mph /  3.2km/h 33% 0.00in /  0mm 46.0 W/m2
08:12 55.9 °F /  13.3 °C 26.4 °F /  -3.1 °C 30.32in /  1026.6hPa Calm     32% 0.00in /  0mm 47.0 W/m2
08:18 57.0 °F /  13.9 °C 25.0 °F /  -3.9 °C 30.32in /  1026.6hPa Calm     29% 0.00in /  0mm 51.0 W/m2
08:24 58.3 °F /  14.6 °C 25.3 °F /  -3.7 °C 30.32in /  1026.6hPa Calm     28% 0.00in /  0mm 53.0 W/m2
08:30 60.3 °F /  15.7 °C 26.1 °F /  -3.3 °C 30.32in /  1026.6hPa Calm   1.0mph /  1.6km/h 27% 0.00in /  0mm 54.0 W/m2
08:36 61.5 °F /  16.4 °C 25.3 °F /  -3.7 °C 30.31in /  1026.3hPa Calm   1.0mph /  1.6km/h 25% 0.00in /  0mm 464.0 W/m2
08:42 63.3 °F /  17.4 °C 25.9 °F /  -3.4 °C 30.31in /  1026.3hPa Calm   2.0mph /  3.2km/h 24% 0.00in /  0mm 482.0 W/m2
08:48 65.3 °F /  18.5 °C 24.4 °F /  -4.2 °C 30.32in /  1026.6hPa Calm   4.0mph /  6.4km/h 21% 0.00in /  0mm 506.0 W/m2
08:55 66.9 °F /  19.4 °C 24.6 °F /  -4.1 °C 30.32in /  1026.6hPa Calm   1.0mph /  1.6km/h 20% 0.00in /  0mm 529.0 W/m2
09:01 68.5 °F /  20.3 °C 24.6 °F /  -4.1 °C 30.32in /  1026.6hPa Calm     19% 0.00in /  0mm 548.0 W/m2
09:07 69.6 °F /  20.9 °C 24.3 °F /  -4.3 °C 30.32in /  1026.6hPa WSW 0.9mph /  1.4km/h 2.0mph /  3.2km/h 18% 0.00in /  0mm 568.0 W/m2
09:13 70.3 °F /  21.3 °C 23.5 °F /  -4.7 °C 30.32in /  1026.6hPa Calm   2.0mph /  3.2km/h 17% 0.00in /  0mm 582.0 W/m2
09:19 71.1 °F /  21.7 °C 22.6 °F /  -5.2 °C 30.32in /  1026.6hPa Calm   1.0mph /  1.6km/h 16% 0.00in /  0mm 599.0 W/m2
09:25 71.8 °F /  22.1 °C 21.6 °F /  -5.8 °C 30.32in /  1026.6hPa Calm   7.0mph /  11.3km/h 15% 0.00in /  0mm 613.0 W/m2
09:31 72.3 °F /  22.4 °C 20.5 °F /  -6.4 °C 30.32in /  1026.6hPa WNW 0.9mph /  1.4km/h 3.0mph /  4.8km/h 14% 0.00in /  0mm 628.0 W/m2
09:37 73.0 °F /  22.8 °C 22.6 °F /  -5.2 °C 30.32in /  1026.6hPa West 4.9mph /  7.9km/h 5.0mph /  8km/h 15% 0.00in /  0mm 640.0 W/m2
09:43 73.6 °F /  23.1 °C 21.4 °F /  -5.9 °C 30.31in /  1026.3hPa WSW 0.9mph /  1.4km/h 3.0mph /  4.8km/h 14% 0.00in /  0mm 657.0 W/m2
09:49 74.1 °F /  23.4 °C 21.9 °F /  -5.6 °C 30.31in /  1026.3hPa WNW 0.9mph /  1.4km/h 2.0mph /  3.2km/h 14% 0.00in /  0mm 675.0 W/m2
09:55 74.5 °F /  23.6 °C 22.1 °F /  -5.5 °C 30.31in /  1026.3hPa Calm   1.0mph /  1.6km/h 14% 0.00in /  0mm 687.0 W/m2
10:01 75.6 °F /  24.2 °C 21.2 °F /  -6 °C 30.31in /  1026.3hPa West 0.9mph /  1.4km/h 1.0mph /  1.6km/h 13% 0.00in /  0mm 707.0 W/m2
10:07 75.6 °F /  24.2 °C 21.2 °F /  -6 °C 30.30in /  1026hPa Calm   4.0mph /  6.4km/h 13% 0.00in /  0mm 710.0 W/m2
10:15 76.1 °F /  24.5 °C 19.8 °F /  -6.8 °C 30.31in /  1026.3hPa West 2.0mph /  3.2km/h 8.0mph /  12.9km/h 12% 0.00in /  0mm 737.0 W/m2
10:21 76.1 °F /  24.5 °C 19.8 °F /  -6.8 °C 30.30in /  1026hPa WSW 0.9mph /  1.4km/h 8.0mph /  12.9km/h 12% 0.00in /  0mm 744.0 W/m2
10:27 76.5 °F /  24.7 °C 18.0 °F /  -7.8 °C 30.30in /  1026hPa WNW 0.9mph /  1.4km/h 7.0mph /  11.3km/h 11% 0.00in /  0mm 751.0 W/m2
10:34 76.6 °F /  24.8 °C 20.3 °F /  -6.5 °C 30.30in /  1026hPa Calm   1.0mph /  1.6km/h 12% 0.00in /  0mm 763.0 W/m2
10:40 76.6 °F /  24.8 °C 18.1 °F /  -7.7 °C 30.29in /  1025.6hPa SW 0.9mph /  1.4km/h 6.0mph /  9.7km/h 11% 0.00in /  0mm 763.0 W/m2
10:46 76.5 °F /  24.7 °C 18.0 °F /  -7.8 °C 30.29in /  1025.6hPa WSW 4.0mph /  6.4km/h 5.0mph /  8km/h 11% 0.00in /  0mm 770.0 W/m2
10:52 76.3 °F /  24.6 °C 18.0 °F /  -7.8 °C 30.29in /  1025.6hPa SW 2.0mph /  3.2km/h 7.0mph /  11.3km/h 11% 0.00in /  0mm 777.0 W/m2
10:58 76.3 °F /  24.6 °C 18.0 °F /  -7.8 °C 30.29in /  1025.6hPa West 0.9mph /  1.4km/h 6.0mph /  9.7km/h 11% 0.00in /  0mm 782.0 W/m2
11:04 76.5 °F /  24.7 °C 18.0 °F /  -7.8 °C 30.29in /  1025.6hPa WSW 6.9mph /  11.1km/h 7.0mph /  11.3km/h 11% 0.00in /  0mm 786.0 W/m2
11:11 77.0 °F /  25 °C 18.5 °F /  -7.5 °C 30.28in /  1025.3hPa West 2.9mph /  4.7km/h 6.0mph /  9.7km/h 11% 0.00in /  0mm 798.0 W/m2
11:16 77.7 °F /  25.4 °C 16.9 °F /  -8.4 °C 30.28in /  1025.3hPa Calm   6.0mph /  9.7km/h 10% 0.00in /  0mm 809.0 W/m2
11:23 78.4 °F /  25.8 °C 17.4 °F /  -8.1 °C 30.28in /  1025.3hPa NNW 0.9mph /  1.4km/h 7.0mph /  11.3km/h 10% 0.00in /  0mm 814.0 W/m2
11:29 78.4 °F /  25.8 °C 17.4 °F /  -8.1 °C 30.28in /  1025.3hPa WNW 0.9mph /  1.4km/h 5.0mph /  8km/h 10% 0.00in /  0mm 814.0 W/m2
11:35 78.4 °F /  25.8 °C 17.4 °F /  -8.1 °C 30.28in /  1025.3hPa WNW 2.9mph /  4.7km/h 5.0mph /  8km/h 10% 0.00in /  0mm 812.0 W/m2
11:41 78.6 °F /  25.9 °C 17.4 °F /  -8.1 °C 30.27in /  1024.9hPa West 2.0mph /  3.2km/h 6.0mph /  9.7km/h 10% 0.00in /  0mm 814.0 W/m2
11:47 79.2 °F /  26.2 °C 15.4 °F /  -9.2 °C 30.27in /  1024.9hPa WSW 2.9mph /  4.7km/h 6.0mph /  9.7km/h 9% 0.00in /  0mm 809.0 W/m2
11:53 79.2 °F /  26.2 °C 18.0 °F /  -7.8 °C 30.27in /  1024.9hPa WSW 2.9mph /  4.7km/h 7.0mph /  11.3km/h 10% 0.00in /  0mm 814.0 W/m2
11:59 78.6 °F /  25.9 °C 15.1 °F /  -9.4 °C 30.27in /  1024.9hPa West 6.0mph /  9.7km/h 9.0mph /  14.5km/h 9% 0.00in /  0mm 810.0 W/m2
12:06 78.3 °F /  25.7 °C 17.2 °F /  -8.2 °C 30.27in /  1024.9hPa SSW 2.0mph /  3.2km/h 5.0mph /  8km/h 10% 0.00in /  0mm 807.0 W/m2
12:12 78.1 °F /  25.6 °C 17.1 °F /  -8.3 °C 30.26in /  1024.6hPa West 0.9mph /  1.4km/h 9.0mph /  14.5km/h 10% 0.00in /  0mm 810.0 W/m2
12:18 78.1 °F /  25.6 °C 14.7 °F /  -9.6 °C 30.26in /  1024.6hPa Calm   8.0mph /  12.9km/h 9% 0.00in /  0mm 810.0 W/m2
12:24 78.3 °F /  25.7 °C 14.7 °F /  -9.6 °C 30.26in /  1024.6hPa Calm   5.0mph /  8km/h 9% 0.00in /  0mm 800.0 W/m2
12:30 78.3 °F /  25.7 °C 14.7 °F /  -9.6 °C 30.26in /  1024.6hPa WSW 2.9mph /  4.7km/h 9.0mph /  14.5km/h 9% 0.00in /  0mm 800.0 W/m2
12:36 78.3 °F /  25.7 °C 14.7 °F /  -9.6 °C 30.25in /  1024.3hPa West 6.9mph /  11.1km/h 10.0mph /  16.1km/h 9% 0.00in /  0mm 800.0 W/m2
12:42 78.6 °F /  25.9 °C 15.1 °F /  -9.4 °C 30.25in /  1024.3hPa WSW 2.9mph /  4.7km/h 8.0mph /  12.9km/h 9% 0.00in /  0mm 802.0 W/m2
12:48 78.6 °F /  25.9 °C 12.4 °F /  -10.9 °C 30.25in /  1024.3hPa SW 2.9mph /  4.7km/h 5.0mph /  8km/h 8% 0.00in /  0mm 791.0 W/m2
12:54 78.8 °F /  26 °C 15.3 °F /  -9.3 °C 30.24in /  1023.9hPa WNW 0.9mph /  1.4km/h 2.0mph /  3.2km/h 9% 0.00in /  0mm 779.0 W/m2
13:01 79.7 °F /  26.5 °C 13.1 °F /  -10.5 °C 30.24in /  1023.9hPa Calm   6.0mph /  9.7km/h 8% 0.00in /  0mm 772.0 W/m2
13:07 80.1 °F /  26.7 °C 13.5 °F /  -10.3 °C 30.24in /  1023.9hPa Calm   1.0mph /  1.6km/h 8% 0.00in /  0mm 765.0 W/m2
13:13 80.1 °F /  26.7 °C 13.5 °F /  -10.3 °C 30.24in /  1023.9hPa WSW 0.9mph /  1.4km/h 5.0mph /  8km/h 8% 0.00in /  0mm 751.0 W/m2
13:19 79.9 °F /  26.6 °C 13.3 °F /  -10.4 °C 30.23in /  1023.6hPa SW 4.9mph /  7.9km/h 5.0mph /  8km/h 8% 0.00in /  0mm 740.0 W/m2
13:25 79.9 °F /  26.6 °C 13.3 °F /  -10.4 °C 30.23in /  1023.6hPa Calm   3.0mph /  4.8km/h 8% 0.00in /  0mm 731.0 W/m2
13:31 79.5 °F /  26.4 °C 13.1 °F /  -10.5 °C 30.23in /  1023.6hPa Calm   5.0mph /  8km/h 8% 0.00in /  0mm 710.0 W/m2
13:37 79.5 °F /  26.4 °C 13.1 °F /  -10.5 °C 30.22in /  1023.2hPa WNW 4.0mph /  6.4km/h 9.0mph /  14.5km/h 8% 0.00in /  0mm 701.0 W/m2
13:43 79.7 °F /  26.5 °C 13.1 °F /  -10.5 °C 30.22in /  1023.2hPa WSW 4.9mph /  7.9km/h 8.0mph /  12.9km/h 8% 0.00in /  0mm 693.0 W/m2
13:49 79.3 °F /  26.3 °C 12.9 °F /  -10.6 °C 30.22in /  1023.2hPa SSW 8.1mph /  13km/h 8.1mph /  13km/h 8% 0.00in /  0mm 682.0 W/m2
13:56 79.5 °F /  26.4 °C 10.0 °F /  -12.2 °C 30.21in /  1022.9hPa SW 6.0mph /  9.7km/h 8.0mph /  12.9km/h 7% 0.00in /  0mm 664.0 W/m2
14:02 79.5 °F /  26.4 °C 10.0 °F /  -12.2 °C 30.21in /  1022.9hPa Calm   1.0mph /  1.6km/h 7% 0.00in /  0mm 654.0 W/m2
14:08 79.9 °F /  26.6 °C 10.2 °F /  -12.1 °C 30.21in /  1022.9hPa SSW 2.0mph /  3.2km/h 10.0mph /  16.1km/h 7% 0.00in /  0mm 633.0 W/m2
14:14 79.7 °F /  26.5 °C 10.2 °F /  -12.1 °C 30.21in /  1022.9hPa Calm   4.0mph /  6.4km/h 7% 0.00in /  0mm 617.0 W/m2
14:20 79.7 °F /  26.5 °C 10.2 °F /  -12.1 °C 30.21in /  1022.9hPa Calm   9.0mph /  14.5km/h 7% 0.00in /  0mm 606.0 W/m2
14:26 79.7 °F /  26.5 °C 10.2 °F /  -12.1 °C 30.20in /  1022.6hPa Calm   2.0mph /  3.2km/h 7% 0.00in /  0mm 589.0 W/m2
14:32 80.1 °F /  26.7 °C 10.4 °F /  -12 °C 30.20in /  1022.6hPa West 4.9mph /  7.9km/h 5.0mph /  8km/h 7% 0.00in /  0mm 571.0 W/m2
14:38 80.4 °F /  26.9 °C 10.8 °F /  -11.8 °C 30.20in /  1022.6hPa Calm   3.0mph /  4.8km/h 7% 0.00in /  0mm 555.0 W/m2
14:45 80.4 °F /  26.9 °C 7.3 °F /  -13.7 °C 30.20in /  1022.6hPa SW 2.0mph /  3.2km/h 7.0mph /  11.3km/h 6% 0.00in /  0mm 541.0 W/m2
14:51 80.2 °F /  26.8 °C 7.2 °F /  -13.8 °C 30.20in /  1022.6hPa SSW 4.0mph /  6.4km/h 6.0mph /  9.7km/h 6% 0.00in /  0mm 522.0 W/m2
14:57 80.6 °F /  27 °C 7.3 °F /  -13.7 °C 30.20in /  1022.6hPa Calm   3.0mph /  4.8km/h 6% 0.00in /  0mm 503.0 W/m2
15:03 80.8 °F /  27.1 °C 7.5 °F /  -13.6 °C 30.19in /  1022.2hPa WSW 0.9mph /  1.4km/h 5.0mph /  8km/h 6% 0.00in /  0mm 483.0 W/m2
15:09 80.4 °F /  26.9 °C 7.3 °F /  -13.7 °C 30.19in /  1022.2hPa Calm   5.0mph /  8km/h 6% 0.00in /  0mm 469.0 W/m2
15:15 80.4 °F /  26.9 °C 7.3 °F /  -13.7 °C 30.19in /  1022.2hPa SSW 4.9mph /  7.9km/h 8.0mph /  12.9km/h 6% 0.00in /  0mm 452.0 W/m2
15:21 80.2 °F /  26.8 °C 7.2 °F /  -13.8 °C 30.19in /  1022.2hPa West 0.9mph /  1.4km/h 2.0mph /  3.2km/h 6% 0.00in /  0mm 427.0 W/m2
15:28 80.4 °F /  26.9 °C 7.3 °F /  -13.7 °C 30.20in /  1022.6hPa Calm   3.0mph /  4.8km/h 6% 0.00in /  0mm 406.0 W/m2
15:34 81.0 °F /  27.2 °C 7.7 °F /  -13.5 °C 30.19in /  1022.2hPa West 2.0mph /  3.2km/h 7.0mph /  11.3km/h 6% 0.00in /  0mm 387.0 W/m2
15:40 81.0 °F /  27.2 °C 7.7 °F /  -13.5 °C 30.19in /  1022.2hPa Calm   8.0mph /  12.9km/h 6% 0.00in /  0mm 367.0 W/m2
15:46 80.8 °F /  27.1 °C 7.5 °F /  -13.6 °C 30.19in /  1022.2hPa West 2.9mph /  4.7km/h 8.0mph /  12.9km/h 6% 0.00in /  0mm 348.0 W/m2
15:52 80.4 °F /  26.9 °C 7.3 °F /  -13.7 °C 30.20in /  1022.6hPa Calm   3.0mph /  4.8km/h 6% 0.00in /  0mm 329.0 W/m2
15:58 80.1 °F /  26.7 °C 3.0 °F /  -16.1 °C 30.19in /  1022.2hPa West 0.9mph /  1.4km/h 1.0mph /  1.6km/h 5% 0.00in /  0mm 302.0 W/m2
16:04 79.5 °F /  26.4 °C 6.6 °F /  -14.1 °C 30.19in /  1022.2hPa WSW 2.9mph /  4.7km/h 9.0mph /  14.5km/h 6% 0.00in /  0mm 283.0 W/m2
16:07 79.3 °F /  26.3 °C 6.4 °F /  -14.2 °C 30.20in /  1022.6hPa Calm   5.0mph /  8km/h 6% 0.00in /  0mm 193.0 W/m2
16:13 79.2 °F /  26.2 °C 2.5 °F /  -16.4 °C 30.19in /  1022.2hPa Calm   4.0mph /  6.4km/h 5% 0.00in /  0mm 47.0 W/m2
16:19 79.2 °F /  26.2 °C 2.5 °F /  -16.4 °C 30.19in /  1022.2hPa West 2.9mph /  4.7km/h 6.0mph /  9.7km/h 5% 0.00in /  0mm 44.0 W/m2
16:25 79.0 °F /  26.1 °C 2.3 °F /  -16.5 °C 30.19in /  1022.2hPa WNW 4.0mph /  6.4km/h 5.0mph /  8km/h 5% 0.00in /  0mm 91.0 W/m2
16:31 78.6 °F /  25.9 °C 1.9 °F /  -16.7 °C 30.20in /  1022.6hPa WSW 2.0mph /  3.2km/h 8.0mph /  12.9km/h 5% 0.00in /  0mm 116.0 W/m2
16:37 78.3 °F /  25.7 °C 1.8 °F /  -16.8 °C 30.20in /  1022.6hPa West 2.9mph /  4.7km/h 4.0mph /  6.4km/h 5% 0.00in /  0mm 70.0 W/m2
16:43 77.9 °F /  25.5 °C 1.6 °F /  -16.9 °C 30.20in /  1022.6hPa WSW 0.9mph /  1.4km/h 3.0mph /  4.8km/h 5% 0.00in /  0mm 49.0 W/m2
16:52 77.5 °F /  25.3 °C 5.2 °F /  -14.9 °C 30.20in /  1022.6hPa Calm   1.0mph /  1.6km/h 6% 0.00in /  0mm 47.0 W/m2
16:58 77.5 °F /  25.3 °C 5.2 °F /  -14.9 °C 30.20in /  1022.6hPa Calm   1.0mph /  1.6km/h 6% 0.00in /  0mm 46.0 W/m2
17:04 77.2 °F /  25.1 °C 8.2 °F /  -13.2 °C 30.19in /  1022.2hPa SW 0.9mph /  1.4km/h 5.0mph /  8km/h 7% 0.00in /  0mm 35.0 W/m2
17:10 76.6 °F /  24.8 °C 7.9 °F /  -13.4 °C 30.20in /  1022.6hPa Calm   1.0mph /  1.6km/h 7% 0.00in /  0mm 21.0 W/m2
17:16 76.3 °F /  24.6 °C 7.7 °F /  -13.5 °C 30.20in /  1022.6hPa Calm     7% 0.00in /  0mm 18.0 W/m2
17:22 75.6 °F /  24.2 °C 7.2 °F /  -13.8 °C 30.20in /  1022.6hPa Calm   3.0mph /  4.8km/h 7% 0.00in /  0mm 14.0 W/m2
17:28 74.8 °F /  23.8 °C 9.5 °F /  -12.5 °C 30.20in /  1022.6hPa Calm     8% 0.00in /  0mm 11.0 W/m2
17:35 74.1 °F /  23.4 °C 6.1 °F /  -14.4 °C 30.21in /  1022.9hPa Calm   5.0mph /  8km/h 7% 0.00in /  0mm 5.0 W/m2
17:41 73.8 °F /  23.2 °C 11.5 °F /  -11.4 °C 30.21in /  1022.9hPa Calm   2.0mph /  3.2km/h 9% 0.00in /  0mm 0.0 W/m2
17:49 73.2 °F /  22.9 °C 10.9 °F /  -11.7 °C 30.21in /  1022.9hPa Calm   1.0mph /  1.6km/h 9% 0.00in /  0mm 0.0 W/m2
17:55 72.7 °F /  22.6 °C 12.9 °F /  -10.6 °C 30.21in /  1022.9hPa Calm     10% 0.00in /  0mm 0.0 W/m2
18:01 72.0 °F /  22.2 °C 12.4 °F /  -10.9 °C 30.22in /  1023.2hPa SW 0.9mph /  1.4km/h 2.0mph /  3.2km/h 10% 0.00in /  0mm 0.0 W/m2
18:08 71.2 °F /  21.8 °C 14.0 °F /  -10 °C 30.22in /  1023.2hPa Calm     11% 0.00in /  0mm 0.0 W/m2
18:13 70.3 °F /  21.3 °C 13.3 °F /  -10.4 °C 30.22in /  1023.2hPa Calm     11% 0.00in /  0mm 0.0 W/m2
18:19 69.6 °F /  20.9 °C 14.7 °F /  -9.6 °C 30.22in /  1023.2hPa Calm     12% 0.00in /  0mm 0.0 W/m2
18:26 68.7 °F /  20.4 °C 14.0 °F /  -10 °C 30.22in /  1023.2hPa Calm     12% 0.00in /  0mm 0.0 W/m2
18:32 67.8 °F /  19.9 °C 15.1 °F /  -9.4 °C 30.22in /  1023.2hPa Calm     13% 0.00in /  0mm 0.0 W/m2
18:38 66.9 °F /  19.4 °C 14.5 °F /  -9.7 °C 30.22in /  1023.2hPa Calm     13% 0.00in /  0mm 0.0 W/m2
18:44 66.2 °F /  19 °C 15.6 °F /  -9.1 °C 30.22in /  1023.2hPa Calm     14% 0.00in /  0mm 0.0 W/m2
18:50 65.5 °F /  18.6 °C 15.1 °F /  -9.4 °C 30.22in /  1023.2hPa Calm     14% 0.00in /  0mm 0.0 W/m2
18:56 64.8 °F /  18.2 °C 16.0 °F /  -8.9 °C 30.22in /  1023.2hPa Calm     15% 0.00in /  0mm 0.0 W/m2
19:03 63.9 °F /  17.7 °C 15.3 °F /  -9.3 °C 30.23in /  1023.6hPa Calm     15% 0.00in /  0mm 0.0 W/m2
19:09 63.1 °F /  17.3 °C 16.2 °F /  -8.8 °C 30.23in /  1023.6hPa Calm     16% 0.00in /  0mm 0.0 W/m2
19:15 62.4 °F /  16.9 °C 15.6 °F /  -9.1 °C 30.24in /  1023.9hPa Calm     16% 0.00in /  0mm 0.0 W/m2
19:21 61.9 °F /  16.6 °C 15.3 °F /  -9.3 °C 30.24in /  1023.9hPa Calm     16% 0.00in /  0mm 0.0 W/m2
19:27 61.2 °F /  16.2 °C 16.0 °F /  -8.9 °C 30.24in /  1023.9hPa Calm     17% 0.00in /  0mm 0.0 W/m2
19:33 60.6 °F /  15.9 °C 15.6 °F /  -9.1 °C 30.24in /  1023.9hPa Calm     17% 0.00in /  0mm 0.0 W/m2
19:45 59.7 °F /  15.4 °C 16.2 °F /  -8.8 °C 30.25in /  1024.3hPa Calm     18% 0.00in /  0mm 0.0 W/m2
19:51 59.5 °F /  15.3 °C 16.0 °F /  -8.9 °C 30.25in /  1024.3hPa SSE 0.9mph /  1.4km/h 2.0mph /  3.2km/h 18% 0.00in /  0mm 0.0 W/m2
19:58 59.4 °F /  15.2 °C 15.8 °F /  -9 °C 30.25in /  1024.3hPa Calm     18% 0.00in /  0mm 0.0 W/m2
20:04 59.2 °F /  15.1 °C 15.6 °F /  -9.1 °C 30.26in /  1024.6hPa Calm   1.0mph /  1.6km/h 18% 0.00in /  0mm 0.0 W/m2
20:10 59.2 °F /  15.1 °C 15.6 °F /  -9.1 °C 30.26in /  1024.6hPa Calm     18% 0.00in /  0mm 0.0 W/m2
20:16 58.8 °F /  14.9 °C 14.0 °F /  -10 °C 30.27in /  1024.9hPa Calm   2.0mph /  3.2km/h 17% 0.00in /  0mm 0.0 W/m2
20:22 58.8 °F /  14.9 °C 14.0 °F /  -10 °C 30.27in /  1024.9hPa Calm     17% 0.00in /  0mm 0.0 W/m2
20:28 58.8 °F /  14.9 °C 15.4 °F /  -9.2 °C 30.27in /  1024.9hPa Calm   1.0mph /  1.6km/h 18% 0.00in /  0mm 0.0 W/m2
20:34 58.6 °F /  14.8 °C 15.3 °F /  -9.3 °C 30.27in /  1024.9hPa Calm     18% 0.00in /  0mm 0.0 W/m2
20:41 58.5 °F /  14.7 °C 15.1 °F /  -9.4 °C 30.27in /  1024.9hPa Calm     18% 0.00in /  0mm 0.0 W/m2
20:47 58.3 °F /  14.6 °C 14.9 °F /  -9.5 °C 30.27in /  1024.9hPa Calm     18% 0.00in /  0mm 0.0 W/m2
20:53 57.9 °F /  14.4 °C 14.7 °F /  -9.6 °C 30.27in /  1024.9hPa SSE 0.9mph /  1.4km/h 2.0mph /  3.2km/h 18% 0.00in /  0mm 0.0 W/m2
20:59 57.6 °F /  14.2 °C 15.6 °F /  -9.1 °C 30.27in /  1024.9hPa Calm   1.0mph /  1.6km/h 19% 0.00in /  0mm 0.0 W/m2
21:05 57.2 °F /  14 °C 15.3 °F /  -9.3 °C 30.27in /  1024.9hPa Calm     19% 0.00in /  0mm 0.0 W/m2
21:11 56.8 °F /  13.8 °C 16.2 °F /  -8.8 °C 30.27in /  1024.9hPa Calm     20% 0.00in /  0mm 0.0 W/m2
21:17 56.5 °F /  13.6 °C 15.8 °F /  -9 °C 30.27in /  1024.9hPa Calm     20% 0.00in /  0mm 0.0 W/m2
21:23 56.1 °F /  13.4 °C 15.6 °F /  -9.1 °C 30.28in /  1025.3hPa Calm     20% 0.00in /  0mm 0.0 W/m2
21:29 55.8 °F /  13.2 °C 15.3 °F /  -9.3 °C 30.28in /  1025.3hPa Calm     20% 0.00in /  0mm 0.0 W/m2
21:35 55.6 °F /  13.1 °C 15.1 °F /  -9.4 °C 30.28in /  1025.3hPa Calm     20% 0.00in /  0mm 0.0 W/m2
21:41 55.4 °F /  13 °C 14.9 °F /  -9.5 °C 30.28in /  1025.3hPa Calm     20% 0.00in /  0mm 0.0 W/m2
21:48 55.2 °F /  12.9 °C 14.9 °F /  -9.5 °C 30.28in /  1025.3hPa Calm     20% 0.00in /  0mm 0.0 W/m2
21:54 55.4 °F /  13 °C 14.9 °F /  -9.5 °C 30.28in /  1025.3hPa Calm     20% 0.00in /  0mm 0.0 W/m2
22:00 55.2 °F /  12.9 °C 14.9 °F /  -9.5 °C 30.28in /  1025.3hPa Calm     20% 0.00in /  0mm 0.0 W/m2
22:06 55.0 °F /  12.8 °C 14.7 °F /  -9.6 °C 30.28in /  1025.3hPa Calm     20% 0.00in /  0mm 0.0 W/m2
22:12 54.9 °F /  12.7 °C 14.5 °F /  -9.7 °C 30.28in /  1025.3hPa Calm   1.0mph /  1.6km/h 20% 0.00in /  0mm 0.0 W/m2
22:18 54.7 °F /  12.6 °C 14.4 °F /  -9.8 °C 30.28in /  1025.3hPa Calm   3.0mph /  4.8km/h 20% 0.00in /  0mm 0.0 W/m2
22:24 54.7 °F /  12.6 °C 14.4 °F /  -9.8 °C 30.28in /  1025.3hPa Calm   1.0mph /  1.6km/h 20% 0.00in /  0mm 0.0 W/m2
22:33 54.5 °F /  12.5 °C 14.2 °F /  -9.9 °C 30.28in /  1025.3hPa Calm   1.0mph /  1.6km/h 20% 0.00in /  0mm 0.0 W/m2
22:39 54.5 °F /  12.5 °C 13.1 °F /  -10.5 °C 30.27in /  1024.9hPa ENE 0.9mph /  1.4km/h 1.0mph /  1.6km/h 19% 0.00in /  0mm 0.0 W/m2
22:45 54.3 °F /  12.4 °C 12.9 °F /  -10.6 °C 30.27in /  1024.9hPa Calm   1.0mph /  1.6km/h 19% 0.00in /  0mm 0.0 W/m2
22:51 54.3 °F /  12.4 °C 14.0 °F /  -10 °C 30.27in /  1024.9hPa Calm   2.0mph /  3.2km/h 20% 0.00in /  0mm 0.0 W/m2
22:57 54.3 °F /  12.4 °C 12.9 °F /  -10.6 °C 30.27in /  1024.9hPa Calm   1.0mph /  1.6km/h 19% 0.00in /  0mm 0.0 W/m2
23:09 54.5 °F /  12.5 °C 14.2 °F /  -9.9 °C 30.27in /  1024.9hPa Calm     20% 0.00in /  0mm 0.0 W/m2
23:15 54.3 °F /  12.4 °C 14.0 °F /  -10 °C 30.27in /  1024.9hPa Calm     20% 0.00in /  0mm 0.0 W/m2
23:22 54.1 °F /  12.3 °C 14.0 °F /  -10 °C 30.27in /  1024.9hPa Calm     20% 0.00in /  0mm 0.0 W/m2
23:28 54.0 °F /  12.2 °C 13.8 °F /  -10.1 °C 30.27in /  1024.9hPa Calm     20% 0.00in /  0mm 0.0 W/m2
23:34 53.6 °F /  12 °C 13.5 °F /  -10.3 °C 30.26in /  1024.6hPa Calm   1.0mph /  1.6km/h 20% 0.00in /  0mm 0.0 W/m2
23:40 53.4 °F /  11.9 °C 13.3 °F /  -10.4 °C 30.26in /  1024.6hPa Calm   1.0mph /  1.6km/h 20% 0.00in /  0mm 0.0 W/m2
23:46 53.2 °F /  11.8 °C 13.1 °F /  -10.5 °C 30.26in /  1024.6hPa Calm   2.0mph /  3.2km/h 20% 0.00in /  0mm 0.0 W/m2
23:52 53.1 °F /  11.7 °C 13.1 °F /  -10.5 °C 30.26in /  1024.6hPa Calm   1.0mph /  1.6km/h 20% 0.00in /  0mm 0.0 W/m2
23:58 52.9 °F /  11.6 °C 12.9 °F /  -10.6 °C 30.26in /  1024.6hPa Calm     20% 0.00in /  0mm 0.0 W/m2
Olympia, Windhoek, Namibia
Compliments of Weather Underground - 3 mb